createdAt,value
2018-05-26T00:02:08.432Z,46.20
2018-05-26T00:04:34.987Z,42.42
2018-05-26T00:07:01.474Z,49.47
2018-05-26T00:09:28.547Z,40.20
2018-05-26T00:11:55.701Z,38.13
2018-05-26T00:14:22.009Z,44.05
2018-05-26T00:16:49.085Z,45.23
2018-05-26T00:19:15.412Z,38.43
2018-05-26T00:21:41.966Z,43.15
2018-05-26T00:24:08.869Z,41.93
2018-05-26T00:26:35.743Z,39.13
2018-05-26T00:29:02.102Z,40.60
2018-05-26T00:31:28.456Z,41.63
2018-05-26T00:33:55.662Z,47.60
2018-05-26T00:36:22.025Z,42.40
2018-05-26T00:38:48.365Z,44.85
2018-05-26T00:41:15.417Z,44.40
2018-05-26T00:43:41.810Z,41.67
2018-05-26T00:46:09.032Z,38.47
2018-05-26T00:48:35.458Z,43.97
2018-05-26T00:51:02.523Z,44.10
2018-05-26T00:53:29.553Z,41.70
2018-05-26T00:55:56.104Z,46.13
2018-05-26T00:58:22.414Z,40.97
2018-05-26T01:00:49.453Z,43.30
2018-05-26T01:03:15.757Z,45.13
2018-05-26T01:05:42.095Z,39.17
2018-05-26T01:08:08.455Z,40.97
2018-05-26T01:10:34.714Z,43.58
2018-05-26T01:13:00.972Z,43.17
2018-05-26T01:15:28.003Z,43.47
2018-05-26T01:17:55.045Z,40.63
2018-05-26T01:20:22.134Z,40.70
2018-05-26T01:22:49.422Z,46.07
2018-05-26T01:25:15.762Z,42.80
2018-05-26T01:27:42.965Z,38.03
2018-05-26T01:30:09.286Z,44.58
2018-05-26T01:32:35.735Z,44.90
2018-05-26T01:35:02.042Z,43.80
2018-05-26T01:37:29.119Z,42.97
2018-05-26T01:39:55.548Z,48.90
2018-05-26T01:42:21.928Z,47.20
2018-05-26T01:44:48.276Z,41.22
2018-05-26T01:47:14.680Z,46.17
2018-05-26T01:49:41.078Z,42.87
2018-05-26T01:52:08.414Z,43.07
2018-05-26T01:54:35.442Z,43.13
2018-05-26T01:57:02.618Z,40.60
2018-05-26T01:59:28.972Z,42.83
2018-05-26T02:01:55.532Z,45.50
2018-05-26T02:04:21.866Z,43.27
2018-05-26T02:06:48.378Z,45.77
2018-05-26T02:09:14.698Z,50.53
2018-05-26T02:11:41.154Z,50.37
2018-05-26T02:14:07.615Z,39.53
2018-05-26T02:16:34.122Z,43.50
2018-05-26T02:19:01.250Z,43.30
2018-05-26T02:21:27.819Z,42.47
2018-05-26T02:23:54.213Z,45.37
2018-05-26T02:26:21.433Z,41.77
2018-05-26T02:28:47.770Z,43.37
2018-05-26T02:31:14.348Z,44.70
2018-05-26T02:33:40.729Z,46.20
2018-05-26T02:36:07.011Z,40.30
2018-05-26T02:38:34.093Z,44.00
2018-05-26T02:41:00.461Z,44.70
2018-05-26T02:43:26.907Z,44.90
2018-05-26T02:45:53.329Z,44.93
2018-05-26T02:48:19.819Z,42.57
2018-05-26T02:50:46.255Z,42.07
2018-05-26T02:53:12.611Z,42.40
2018-05-26T02:55:38.969Z,42.00
2018-05-26T02:58:05.665Z,46.20
2018-05-26T03:00:31.999Z,44.60
2018-05-26T03:02:58.319Z,50.23
2018-05-26T03:05:30.727Z,41.13
2018-05-26T03:08:03.837Z,41.37
2018-05-26T03:10:36.970Z,43.90
2018-05-26T03:13:10.297Z,43.77
2018-05-26T03:15:36.815Z,41.67
2018-05-26T03:18:11.861Z,40.37
2018-05-26T03:20:38.214Z,43.73
2018-05-26T03:23:04.603Z,42.43
2018-05-26T03:25:30.936Z,40.47
2018-05-26T03:27:58.285Z,44.40
2018-05-26T03:30:25.401Z,42.53
2018-05-26T03:32:52.614Z,40.50
2018-05-26T03:35:19.742Z,42.50
2018-05-26T03:37:46.912Z,39.40
2018-05-26T03:40:13.247Z,41.23
2018-05-26T03:42:39.690Z,43.87
2018-05-26T03:45:06.124Z,43.93
2018-05-26T03:47:32.618Z,41.90
2018-05-26T03:49:59.653Z,41.73
2018-05-26T03:52:27.065Z,38.30
2018-05-26T03:54:53.500Z,40.80
2018-05-26T03:57:19.870Z,43.30
2018-05-26T03:59:46.189Z,38.93
2018-05-26T04:02:12.591Z,39.97
2018-05-26T04:04:38.988Z,35.83
2018-05-26T04:07:06.742Z,41.23
2018-05-26T04:12:14.183Z,37.63
2018-05-26T04:14:40.509Z,39.40
2018-05-26T04:17:07.599Z,38.93
2018-05-26T04:19:34.133Z,41.30
2018-05-26T04:22:00.501Z,35.40
2018-05-26T04:24:26.969Z,39.57
2018-05-26T04:26:53.333Z,40.60
2018-05-26T04:29:20.587Z,36.43
2018-05-26T04:31:47.005Z,34.33
2018-05-26T04:34:13.399Z,36.03
2018-05-26T04:36:40.577Z,32.73
2018-05-26T04:39:07.048Z,39.83
2018-05-26T04:41:33.408Z,36.10
2018-05-26T04:44:00.678Z,36.83
2018-05-26T04:46:27.068Z,37.03
2018-05-26T04:48:53.470Z,35.43
2018-05-26T04:51:19.814Z,39.47
2018-05-26T04:53:46.911Z,39.30
2018-05-26T04:56:13.400Z,34.03
2018-05-26T04:58:39.871Z,36.97
2018-05-26T05:01:06.246Z,33.40
2018-05-26T05:03:33.338Z,35.23
2018-05-26T05:05:59.750Z,38.00
2018-05-26T05:08:26.946Z,35.40
2018-05-26T05:10:53.476Z,39.83
2018-05-26T05:13:19.940Z,34.63
2018-05-26T05:15:47.160Z,36.03
2018-05-26T05:18:14.209Z,34.77
2018-05-26T05:20:40.756Z,35.20
2018-05-26T05:23:07.173Z,38.50
2018-05-26T05:25:33.590Z,36.33
2018-05-26T05:27:59.949Z,32.53
2018-05-26T05:30:26.474Z,38.00
2018-05-26T05:32:52.883Z,34.50
2018-05-26T05:35:19.341Z,32.93
2018-05-26T05:37:45.789Z,34.23
2018-05-26T05:40:12.279Z,31.70
2018-05-26T05:42:39.452Z,35.60
2018-05-26T05:45:05.925Z,37.80
2018-05-26T05:47:32.345Z,39.40
2018-05-26T05:49:58.805Z,36.07
2018-05-26T05:52:25.477Z,34.33
2018-05-26T05:54:52.815Z,32.87
2018-05-26T05:57:19.257Z,35.43
2018-05-26T05:59:45.745Z,36.60
2018-05-26T06:02:12.252Z,31.33
2018-05-26T06:04:38.677Z,31.53
2018-05-26T06:07:05.187Z,38.07
2018-05-26T06:09:31.623Z,33.47
2018-05-26T06:11:57.998Z,34.87
2018-05-26T06:14:24.394Z,34.47
2018-05-26T06:16:51.645Z,33.27
2018-05-26T06:19:18.085Z,30.10
2018-05-26T06:21:44.569Z,35.03
2018-05-26T06:24:12.005Z,33.50
2018-05-26T06:26:38.460Z,32.57
2018-05-26T06:29:04.889Z,34.63
2018-05-26T06:31:31.299Z,31.67
2018-05-26T06:33:58.423Z,34.17
2018-05-26T06:36:24.861Z,27.97
2018-05-26T06:38:51.377Z,33.47
2018-05-26T06:41:17.796Z,33.03
2018-05-26T06:43:44.174Z,31.10
2018-05-26T06:46:12.037Z,31.40
2018-05-26T06:48:39.770Z,35.07
2018-05-26T06:51:06.153Z,31.37
2018-05-26T06:53:34.215Z,31.50
2018-05-26T06:56:00.603Z,32.60
2018-05-26T06:58:27.347Z,32.90
2018-05-26T07:00:53.805Z,32.07
2018-05-26T07:03:20.221Z,31.30
2018-05-26T07:05:47.349Z,34.63
2018-05-26T07:08:14.490Z,32.40
2018-05-26T07:10:41.578Z,32.27
2018-05-26T07:13:07.956Z,30.90
2018-05-26T07:15:35.130Z,30.73
2018-05-26T07:18:01.531Z,31.30
2018-05-26T07:20:27.898Z,28.13
2018-05-26T07:22:55.050Z,30.93
2018-05-26T07:25:21.302Z,30.67
2018-05-26T07:27:48.308Z,29.87
2018-05-26T07:30:14.785Z,29.87
2018-05-26T07:32:41.342Z,28.47
2018-05-26T07:35:07.602Z,29.40
2018-05-26T07:37:33.984Z,31.33
2018-05-26T07:40:00.364Z,28.43
2018-05-26T07:42:26.762Z,32.47
2018-05-26T07:44:53.148Z,29.90
2018-05-26T07:47:20.778Z,30.23
2018-05-26T07:49:48.955Z,45.87
2018-05-26T07:52:17.163Z,58.03
2018-05-26T07:54:43.583Z,56.63
2018-05-26T07:57:10.766Z,58.90
2018-05-26T07:59:37.109Z,54.17
2018-05-26T08:02:03.473Z,59.03
2018-05-26T08:04:29.882Z,58.47
2018-05-26T08:06:56.313Z,58.23
2018-05-26T08:09:22.709Z,54.73
2018-05-26T08:11:49.946Z,57.93
2018-05-26T08:14:16.357Z,55.93
2018-05-26T08:16:43.590Z,61.17
2018-05-26T08:19:10.742Z,64.07
2018-05-26T08:21:37.160Z,59.17
2018-05-26T08:24:04.243Z,59.78
2018-05-26T08:26:31.614Z,60.17
2018-05-26T08:28:58.007Z,61.33
2018-05-26T08:31:24.504Z,65.80
2018-05-26T08:33:51.353Z,64.90
2018-05-26T08:38:56.324Z,58.73
2018-05-26T08:41:23.499Z,60.83
2018-05-26T08:43:49.977Z,54.72
2018-05-26T08:46:17.181Z,48.70
2018-05-26T08:48:43.551Z,52.05
2018-05-26T08:51:10.199Z,48.28
2018-05-26T08:53:36.699Z,47.33
2018-05-26T08:56:03.577Z,50.50
2018-05-26T08:58:30.136Z,45.90
2018-05-26T09:00:57.357Z,50.30
2018-05-26T09:03:23.805Z,48.45
2018-05-26T09:05:51.025Z,48.10
2018-05-26T09:08:17.399Z,45.58
2018-05-26T09:10:43.887Z,52.13
2018-05-26T09:13:10.363Z,45.17
2018-05-26T09:15:37.747Z,45.30
2018-05-26T09:18:04.279Z,44.05
2018-05-26T09:20:30.724Z,43.47
2018-05-26T09:22:57.196Z,43.97
2018-05-26T09:25:23.785Z,46.80
2018-05-26T09:27:50.185Z,42.17
2018-05-26T09:30:17.410Z,42.05
2018-05-26T09:32:44.003Z,44.78
2018-05-26T09:35:11.304Z,41.45
2018-05-26T09:37:37.766Z,41.97
2018-05-26T09:40:04.229Z,39.45
2018-05-26T09:42:31.469Z,35.60
2018-05-26T09:44:58.630Z,33.50
2018-05-26T09:47:25.116Z,33.67
2018-05-26T09:49:51.518Z,37.88
2018-05-26T09:52:17.975Z,31.08
2018-05-26T09:54:44.396Z,29.73
2018-05-26T09:57:10.833Z,37.95
2018-05-26T09:59:38.143Z,30.65
2018-05-26T10:02:04.604Z,31.23
2018-05-26T10:04:30.996Z,31.15
2018-05-26T10:06:57.496Z,34.22
2018-05-26T10:09:24.053Z,29.58
2018-05-26T10:11:50.800Z,25.70
2018-05-26T10:14:17.308Z,34.50
2018-05-26T10:16:44.612Z,25.48
2018-05-26T10:19:11.944Z,30.35
2018-05-26T10:21:38.567Z,26.67
2018-05-26T10:24:05.792Z,28.62
2018-05-26T10:26:32.279Z,30.95
2018-05-26T10:28:59.467Z,26.58
2018-05-26T10:31:25.852Z,26.92
2018-05-26T10:33:52.293Z,23.38
2018-05-26T10:36:19.435Z,24.58
2018-05-26T10:38:45.900Z,21.10
2018-05-26T10:41:12.291Z,23.45
2018-05-26T10:43:38.649Z,22.45
2018-05-26T10:46:05.105Z,20.35
2018-05-26T10:48:31.692Z,11.10
2018-05-26T10:50:58.097Z,15.98
2018-05-26T10:53:39.415Z,12.73
2018-05-26T10:56:06.495Z,8.50
2018-05-26T10:58:33.581Z,11.02
2018-05-26T11:00:59.932Z,8.90
2018-05-26T11:03:26.407Z,8.38
2018-05-26T11:05:52.839Z,9.10
2018-05-26T11:08:19.274Z,7.15
2018-05-26T11:10:46.409Z,6.82
2018-05-26T11:13:12.743Z,10.10
2018-05-26T11:15:39.233Z,7.53
2018-05-26T11:18:05.592Z,12.13
2018-05-26T11:20:31.956Z,6.57
2018-05-26T11:22:59.160Z,7.72
2018-05-26T11:25:25.606Z,9.50
2018-05-26T11:27:51.910Z,6.75
2018-05-26T11:30:18.280Z,5.85
2018-05-26T11:32:44.688Z,6.25
2018-05-26T11:35:11.130Z,5.62
2018-05-26T11:37:37.476Z,6.82
2018-05-26T11:40:03.864Z,5.90
2018-05-26T11:42:30.998Z,8.43
2018-05-26T11:44:57.389Z,7.62
2018-05-26T11:47:23.762Z,7.80
2018-05-26T11:49:50.898Z,7.93
2018-05-26T11:52:17.210Z,5.43
2018-05-26T11:54:43.562Z,5.93
2018-05-26T11:57:10.060Z,6.07
2018-05-26T11:59:36.410Z,7.82
2018-05-26T12:02:02.816Z,8.60
2018-05-26T12:04:29.176Z,11.63
2018-05-26T12:06:55.705Z,9.32
2018-05-26T12:09:22.196Z,6.32
2018-05-26T12:11:48.648Z,8.38
2018-05-26T12:14:15.111Z,6.22
2018-05-26T12:16:41.599Z,6.43
2018-05-26T12:19:08.705Z,5.12
2018-05-26T12:21:35.347Z,5.12
2018-05-26T12:24:01.770Z,4.65
2018-05-26T12:26:28.166Z,6.15
2018-05-26T12:28:54.498Z,6.25
2018-05-26T12:31:21.607Z,5.68
2018-05-26T12:33:48.123Z,5.68
2018-05-26T12:36:14.612Z,5.35
2018-05-26T12:38:40.985Z,6.40
2018-05-26T12:41:07.372Z,5.50
2018-05-26T12:43:33.773Z,6.78
2018-05-26T12:46:00.146Z,5.70
2018-05-26T12:48:27.191Z,8.23
2018-05-26T12:50:53.571Z,6.78
2018-05-26T12:53:19.999Z,6.05
2018-05-26T12:55:46.302Z,5.45
2018-05-26T12:58:12.823Z,4.30
2018-05-26T13:00:39.290Z,4.30
2018-05-26T13:03:06.362Z,3.97
2018-05-26T13:05:32.651Z,4.72
2018-05-26T13:07:59.025Z,5.03
2018-05-26T13:10:25.322Z,5.32
2018-05-26T13:12:51.659Z,5.47
2018-05-26T13:15:18.705Z,6.95
2018-05-26T13:17:45.033Z,5.68
2018-05-26T13:20:11.433Z,6.85
2018-05-26T13:22:38.520Z,6.20
2018-05-26T13:25:05.006Z,6.97
2018-05-26T13:27:31.430Z,6.20
2018-05-26T13:29:58.492Z,6.80
2018-05-26T13:32:24.775Z,5.80
2018-05-26T13:34:51.040Z,4.68
2018-05-26T13:37:17.271Z,5.57
2018-05-26T13:39:43.561Z,5.40
2018-05-26T13:42:09.976Z,6.30
2018-05-26T13:44:36.360Z,6.85
2018-05-26T13:47:03.414Z,6.18
2018-05-26T13:49:30.486Z,9.15
2018-05-26T13:51:56.914Z,7.32
2018-05-26T13:54:23.257Z,9.48
2018-05-26T13:56:49.669Z,6.28
2018-05-26T13:59:15.984Z,6.62
2018-05-26T14:01:43.528Z,11.50
2018-05-26T14:04:09.879Z,8.90
2018-05-26T14:06:37.021Z,7.68
2018-05-26T14:09:04.199Z,9.45
2018-05-26T14:11:30.649Z,7.30
2018-05-26T14:13:56.983Z,7.68
2018-05-26T14:16:23.383Z,7.47
2018-05-26T14:18:49.817Z,6.55
2018-05-26T14:21:16.916Z,6.90
2018-05-26T14:23:43.389Z,9.55
2018-05-26T14:26:10.505Z,7.37
2018-05-26T14:28:36.908Z,7.55
2018-05-26T14:31:05.092Z,8.40
2018-05-26T14:33:31.823Z,6.95
2018-05-26T14:35:59.068Z,6.47
2018-05-26T14:38:25.973Z,6.78
2018-05-26T14:40:53.880Z,5.55
2018-05-26T14:43:20.434Z,7.05
2018-05-26T14:45:47.514Z,5.12
2018-05-26T14:48:13.890Z,7.10
2018-05-26T14:50:40.342Z,6.30
2018-05-26T14:53:07.542Z,6.00
2018-05-26T14:55:35.408Z,6.00
2018-05-26T14:58:02.212Z,8.20
2018-05-26T15:00:31.683Z,6.60
2018-05-26T15:03:00.768Z,10.07
2018-05-26T15:05:27.133Z,6.93
2018-05-26T15:07:54.221Z,6.53
2018-05-26T15:10:20.660Z,8.70
2018-05-26T15:12:47.149Z,6.57
2018-05-26T15:15:13.573Z,7.15
2018-05-26T15:17:40.200Z,6.20
2018-05-26T15:20:08.266Z,6.20
2018-05-26T15:22:35.375Z,5.60
2018-05-26T15:25:01.669Z,6.75
2018-05-26T15:27:28.082Z,7.03
2018-05-26T15:29:54.450Z,7.45
2018-05-26T15:32:20.877Z,7.65
2018-05-26T15:34:48.039Z,6.43
2018-05-26T15:37:14.449Z,6.68
2018-05-26T15:39:40.873Z,7.65
2018-05-26T15:42:07.191Z,6.50
2018-05-26T15:44:33.509Z,8.05
2018-05-26T15:46:59.889Z,7.55
2018-05-26T15:49:26.334Z,5.25
2018-05-26T15:51:52.699Z,5.68
2018-05-26T15:54:19.077Z,5.70
2018-05-26T15:56:46.266Z,5.15
2018-05-26T15:59:13.847Z,5.68
2018-05-26T16:01:40.924Z,5.35
2018-05-26T16:04:08.019Z,4.82
2018-05-26T16:06:34.376Z,5.10
2018-05-26T16:09:00.776Z,5.18
2018-05-26T16:11:27.247Z,8.23
2018-05-26T16:13:53.610Z,4.40
2018-05-26T16:16:19.922Z,4.43
2018-05-26T16:18:46.259Z,6.47
2018-05-26T16:21:12.562Z,7.53
2018-05-26T16:23:38.921Z,11.25
2018-05-26T16:26:05.362Z,6.85
2018-05-26T16:28:31.903Z,6.05
2018-05-26T16:30:58.202Z,4.93
2018-05-26T16:33:24.603Z,4.47
2018-05-26T16:35:51.087Z,6.53
2018-05-26T16:38:17.551Z,7.37
2018-05-26T16:40:43.939Z,8.25
2018-05-26T16:43:11.020Z,6.50
2018-05-26T16:45:37.464Z,3.92
2018-05-26T16:48:03.816Z,4.30
2018-05-26T16:50:30.218Z,5.75
2018-05-26T16:52:56.623Z,3.97
2018-05-26T16:55:23.038Z,5.65
2018-05-26T16:57:49.923Z,3.17
2018-05-26T17:00:16.327Z,7.40
2018-05-26T17:02:42.665Z,4.20
2018-05-26T17:05:08.994Z,4.15
2018-05-26T17:07:35.328Z,7.15
2018-05-26T17:10:02.448Z,8.27
2018-05-26T17:12:28.755Z,4.45
2018-05-26T17:14:55.964Z,4.25
2018-05-26T17:17:22.358Z,4.47
2018-05-26T17:19:48.750Z,4.57
2018-05-26T17:22:15.134Z,5.07
2018-05-26T17:24:41.537Z,3.83
2018-05-26T17:27:08.631Z,3.72
2018-05-26T17:29:35.425Z,4.68
2018-05-26T17:32:04.797Z,3.97
2018-05-26T17:34:31.715Z,5.65
2018-05-26T17:36:58.899Z,7.18
2018-05-26T17:39:25.283Z,4.40
2018-05-26T17:41:54.244Z,7.12
2018-05-26T17:44:22.889Z,6.57
2018-05-26T17:46:51.385Z,6.05
2018-05-26T17:49:19.769Z,4.62
2018-05-26T17:51:46.204Z,3.62
2018-05-26T17:54:13.526Z,4.40
2018-05-26T17:56:41.591Z,5.65
2018-05-26T18:04:32.129Z,4.20
2018-05-26T18:06:58.654Z,4.32
2018-05-26T18:09:26.464Z,4.90
2018-05-26T18:11:53.082Z,4.43
2018-05-26T18:14:19.519Z,5.25
2018-05-26T18:16:45.861Z,6.18
2018-05-26T18:19:12.171Z,5.55
2018-05-26T18:21:38.539Z,4.43
2018-05-26T18:24:05.073Z,5.15
2018-05-26T18:26:31.639Z,4.12
2018-05-26T18:29:00.433Z,6.25
2018-05-26T18:31:29.955Z,5.40
2018-05-26T18:33:59.360Z,7.60
2018-05-26T18:36:26.525Z,7.57
2018-05-26T18:38:53.679Z,4.93
2018-05-26T18:41:21.720Z,12.15
2018-05-26T18:43:48.289Z,4.93
2018-05-26T18:46:14.651Z,6.53
2018-05-26T18:48:41.186Z,5.32
2018-05-26T18:51:08.360Z,5.72
2018-05-26T18:53:35.960Z,4.20
2018-05-26T18:56:08.296Z,4.20
2018-05-26T18:58:36.190Z,4.75
2018-05-26T19:01:03.903Z,7.75
2018-05-26T19:03:35.064Z,6.80
2018-05-26T19:06:03.482Z,5.93
2018-05-26T19:08:31.178Z,9.70
2018-05-26T19:11:00.707Z,5.22
2018-05-26T19:13:29.088Z,8.65
2018-05-26T19:15:56.955Z,5.82
2018-05-26T19:18:26.590Z,5.82
2018-05-26T19:20:57.057Z,7.75
2018-05-26T19:23:26.432Z,5.12
2018-05-26T19:25:57.312Z,5.15
2018-05-26T19:28:26.922Z,5.87
2018-05-26T19:30:58.045Z,5.62
2018-05-26T19:33:26.637Z,5.05
2018-05-26T19:35:56.567Z,6.25
2018-05-26T19:38:25.589Z,5.10
2018-05-26T19:40:53.897Z,5.57
2018-05-26T19:43:21.406Z,7.07
2018-05-26T19:45:50.335Z,7.82
2018-05-26T19:48:16.711Z,8.68
2018-05-26T19:50:43.847Z,5.95
2018-05-26T19:53:10.252Z,5.95
2018-05-26T19:55:36.646Z,5.97
2018-05-26T19:58:02.968Z,6.93
2018-05-26T20:00:29.330Z,6.37
2018-05-26T20:02:56.419Z,5.75
2018-05-26T20:05:22.846Z,5.05
2018-05-26T20:07:49.370Z,5.55
2018-05-26T20:10:15.789Z,8.07
2018-05-26T20:12:42.180Z,6.20
2018-05-26T20:15:08.642Z,6.62
2018-05-26T20:17:35.916Z,4.60
2018-05-26T20:20:02.322Z,5.22
2018-05-26T20:22:28.683Z,5.40
2018-05-26T20:24:55.084Z,5.72
2018-05-26T20:27:21.667Z,5.82
2018-05-26T20:29:48.106Z,5.60
2018-05-26T20:32:14.571Z,4.68
2018-05-26T20:34:40.907Z,5.68
2018-05-26T20:37:07.279Z,4.47
2018-05-26T20:39:33.676Z,4.70
2018-05-26T20:42:00.098Z,5.40
2018-05-26T20:44:27.553Z,4.95
2018-05-26T20:46:53.990Z,4.87
2018-05-26T20:49:20.437Z,4.50
2018-05-26T20:51:46.816Z,5.25
2018-05-26T20:54:13.278Z,4.05
2018-05-26T20:56:39.636Z,4.47
2018-05-26T20:59:06.813Z,4.40
2018-05-26T21:01:34.048Z,4.18
2018-05-26T21:04:01.236Z,6.70
2018-05-26T21:06:27.688Z,5.12
2018-05-26T21:08:54.078Z,3.83
2018-05-26T21:11:20.471Z,3.65
2018-05-26T21:13:47.659Z,4.10
2018-05-26T21:16:14.024Z,5.37
2018-05-26T21:18:40.380Z,4.97
2018-05-26T21:21:06.691Z,5.07
2018-05-26T21:23:33.185Z,3.90
2018-05-26T21:28:16.388Z,4.47
2018-05-26T21:30:42.761Z,4.45
2018-05-26T21:33:09.105Z,3.80
2018-05-26T21:35:35.463Z,4.22
2018-05-26T21:38:02.683Z,4.12
2018-05-26T21:40:29.879Z,3.92
2018-05-26T21:42:56.291Z,4.75
2018-05-26T21:45:22.744Z,5.78
2018-05-26T21:47:49.108Z,4.70
2018-05-26T21:50:15.484Z,4.18
2018-05-26T21:52:41.869Z,4.32
2018-05-26T21:55:08.281Z,4.55
2018-05-26T21:57:34.659Z,4.72
2018-05-26T22:00:01.054Z,4.68
2018-05-26T22:02:27.536Z,4.85
2018-05-26T22:04:54.007Z,4.43
2018-05-26T22:07:20.456Z,4.20
2018-05-26T22:09:46.907Z,5.45
2018-05-26T22:12:13.294Z,5.75
2018-05-26T22:14:40.079Z,3.72
2018-05-26T22:17:06.518Z,4.50
2018-05-26T22:19:32.874Z,5.55
2018-05-26T22:21:59.255Z,5.35
2018-05-26T22:24:26.338Z,4.90
2018-05-26T22:26:52.667Z,4.87
2018-05-26T22:29:19.172Z,4.00
2018-05-26T22:31:46.325Z,4.30
2018-05-26T22:34:12.921Z,4.12
2018-05-26T22:36:40.075Z,4.35
2018-05-26T22:39:06.445Z,4.30
2018-05-26T22:41:33.788Z,4.47
2018-05-26T22:44:00.144Z,4.20
2018-05-26T22:46:26.473Z,4.32
2018-05-26T22:48:53.592Z,4.40
2018-05-26T22:51:19.917Z,5.15
2018-05-26T22:53:46.272Z,5.00
2018-05-26T22:56:12.753Z,4.32
2018-05-26T22:58:40.132Z,4.32
2018-05-26T23:01:06.452Z,4.55
2018-05-26T23:03:33.583Z,5.05
2018-05-26T23:06:00.929Z,4.85
2018-05-26T23:08:27.301Z,5.03
2018-05-26T23:10:53.686Z,3.97
2018-05-26T23:13:20.029Z,4.75
2018-05-26T23:15:46.355Z,4.78
2018-05-26T23:18:12.697Z,4.50
2018-05-26T23:20:39.930Z,5.80
2018-05-26T23:23:06.372Z,4.87
2018-05-26T23:25:33.499Z,5.35
2018-05-26T23:27:59.780Z,4.53
2018-05-26T23:30:26.070Z,4.65
2018-05-26T23:32:53.176Z,5.57
2018-05-26T23:35:19.675Z,5.07
2018-05-26T23:37:46.183Z,4.72
2018-05-26T23:40:12.570Z,5.12
2018-05-26T23:42:38.900Z,4.28
2018-05-26T23:45:05.253Z,4.40
2018-05-26T23:47:31.688Z,4.22
2018-05-26T23:49:58.142Z,4.32
2018-05-26T23:52:24.560Z,4.40
2018-05-26T23:54:50.887Z,4.40
2018-05-26T23:57:17.194Z,4.93
2018-05-26T23:59:45.259Z,4.68
